Pleasant Grove, North Carolina
Current Conditions -  °F | °C
As of 12:15 PM on Thursday 27 Nov 2014 (Local Time) from KMRN Reporting Station
Broken Clouds Broken Clouds  
Wind Chill: 42°   Ceiling: 5000
Heat Index: 47°   Visibility: 10mi
Dew Point: 30°   Wind: 10mph
Humidity: 53%   Direction: 300°WNW
Pressure: 30.15"   Gusts: NA
Location:  35.7567°N, 81.7518°W
Report Text: KMRN 271715Z AUTO 30009KT 270V330 10SM SCT042 BKN050 BKN065 08/M01 A3015 RMK AO2 T00831009
Loading
Personal Weather Stations






























Interactive Weather Map New forecast layout! Learn more

10-Day Weather Forecast

Advertisements
Track Severe Weather on mobile